createdAt,value
2022-10-06T00:02:36.334Z,85.61
2022-10-06T00:07:40.949Z,86.02
2022-10-06T00:12:50.058Z,86.30
2022-10-06T00:17:56.955Z,86.59
2022-10-06T00:23:03.331Z,86.96
2022-10-06T00:28:10.404Z,86.89
2022-10-06T00:33:18.007Z,86.77
2022-10-06T00:38:25.573Z,87.08
2022-10-06T00:43:51.064Z,87.17
2022-10-06T00:49:02.302Z,87.62
2022-10-06T00:54:07.408Z,88.01
2022-10-06T00:59:15.618Z,88.16
2022-10-06T01:04:24.043Z,88.02
2022-10-06T01:09:31.578Z,88.37
2022-10-06T01:14:39.875Z,88.90
2022-10-06T01:19:52.500Z,89.38
2022-10-06T01:24:58.756Z,89.76
2022-10-06T01:30:07.663Z,89.87
2022-10-06T01:35:13.647Z,89.93
2022-10-06T01:40:19.682Z,90.08
2022-10-06T01:45:25.503Z,90.43
2022-10-06T01:50:31.410Z,90.57
2022-10-06T01:55:37.274Z,90.61
2022-10-06T02:00:44.940Z,90.38
2022-10-06T02:05:50.970Z,90.17
2022-10-06T02:10:56.985Z,90.30
2022-10-06T02:16:06.763Z,90.16
2022-10-06T02:21:17.367Z,89.99
2022-10-06T02:26:23.623Z,90.07
2022-10-06T02:31:31.144Z,91.03
2022-10-06T02:36:37.656Z,91.60
2022-10-06T02:41:44.369Z,91.65
2022-10-06T02:46:52.730Z,91.51
2022-10-06T02:51:58.856Z,90.99
2022-10-06T02:57:05.869Z,90.93
2022-10-06T03:02:11.919Z,90.90
2022-10-06T03:07:18.004Z,91.32
2022-10-06T03:12:24.302Z,91.73
2022-10-06T03:17:31.137Z,91.72
2022-10-06T03:22:37.898Z,91.62
2022-10-06T03:27:44.670Z,91.44
2022-10-06T03:32:52.031Z,91.35
2022-10-06T03:38:00.559Z,91.35
2022-10-06T03:43:09.166Z,91.16
2022-10-06T03:48:15.486Z,91.29
2022-10-06T03:53:25.602Z,91.24
2022-10-06T03:58:33.154Z,91.21
2022-10-06T04:03:40.137Z,91.00
2022-10-06T04:08:47.725Z,90.88
2022-10-06T04:13:56.789Z,91.20
2022-10-06T04:19:06.357Z,92.03
2022-10-06T04:24:13.125Z,92.55
2022-10-06T04:29:21.822Z,96.23
2022-10-06T04:34:32.150Z,98.12
2022-10-06T04:39:38.298Z,98.62
2022-10-06T04:44:45.317Z,98.50
2022-10-06T04:49:51.472Z,97.90
2022-10-06T04:54:57.732Z,97.43
2022-10-06T05:00:22.728Z,96.86
2022-10-06T05:05:29.492Z,95.89
2022-10-06T05:10:35.960Z,95.30
2022-10-06T05:15:42.358Z,94.72
2022-10-06T05:20:57.119Z,94.09
2022-10-06T05:26:03.146Z,93.60
2022-10-06T05:31:12.768Z,92.97
2022-10-06T05:36:21.063Z,92.46
2022-10-06T05:41:30.137Z,92.01
2022-10-06T05:46:38.267Z,91.35
2022-10-06T05:51:51.035Z,91.03
2022-10-06T05:57:01.801Z,90.55
2022-10-06T06:02:10.405Z,89.55
2022-10-06T06:07:18.451Z,86.27
2022-10-06T06:12:25.150Z,84.33
2022-10-06T06:18:06.051Z,82.61
2022-10-06T06:23:12.241Z,80.23
2022-10-06T06:28:18.758Z,75.21
2022-10-06T06:33:24.773Z,68.38
2022-10-06T06:38:32.325Z,62.01
2022-10-06T06:43:39.416Z,57.24
2022-10-06T06:49:04.703Z,56.32
2022-10-06T06:54:13.540Z,57.54
2022-10-06T06:59:22.417Z,59.21
2022-10-06T07:04:32.836Z,62.08
2022-10-06T07:09:39.174Z,64.50
2022-10-06T07:15:09.071Z,66.96
2022-10-06T07:20:37.665Z,68.71
2022-10-06T07:25:43.689Z,70.24
2022-10-06T07:30:50.519Z,71.37
2022-10-06T07:35:59.220Z,72.06
2022-10-06T07:41:18.812Z,72.13
2022-10-06T07:46:35.402Z,71.78
2022-10-06T07:51:45.342Z,71.80
2022-10-06T07:56:51.473Z,72.02
2022-10-06T08:01:57.422Z,72.35
2022-10-06T08:07:03.299Z,73.08
2022-10-06T08:12:27.869Z,73.39
2022-10-06T08:17:34.243Z,73.50
2022-10-06T08:22:41.149Z,73.47
2022-10-06T08:27:53.262Z,72.87
2022-10-06T08:32:59.555Z,71.38
2022-10-06T08:38:05.424Z,66.11
2022-10-06T08:43:16.775Z,59.42
2022-10-06T08:48:26.818Z,51.94
2022-10-06T08:53:39.379Z,47.36
2022-10-06T08:58:54.044Z,43.57
2022-10-06T09:04:05.103Z,42.05
2022-10-06T09:09:21.375Z,39.56
2022-10-06T09:14:37.588Z,39.04
2022-10-06T09:19:47.863Z,40.67
2022-10-06T09:24:57.437Z,42.58
2022-10-06T09:30:04.706Z,44.39
2022-10-06T09:35:18.903Z,46.44
2022-10-06T09:40:38.494Z,49.31
2022-10-06T09:45:44.489Z,49.55
2022-10-06T09:51:10.784Z,48.50
2022-10-06T09:56:22.041Z,47.28
2022-10-06T10:01:29.867Z,47.19
2022-10-06T10:06:36.355Z,47.55
2022-10-06T10:12:01.272Z,48.86
2022-10-06T10:17:15.593Z,50.03
2022-10-06T10:22:24.253Z,49.94
2022-10-06T10:27:39.733Z,48.02
2022-10-06T10:33:00.947Z,47.27
2022-10-06T10:38:14.940Z,48.51
2022-10-06T10:43:31.853Z,50.20
2022-10-06T10:48:44.722Z,51.70
2022-10-06T10:53:54.165Z,52.39
2022-10-06T10:59:15.229Z,54.10
2022-10-06T11:05:36.248Z,55.92
2022-10-06T11:10:48.151Z,56.97
2022-10-06T11:16:08.097Z,58.22
2022-10-06T11:21:17.936Z,59.32
2022-10-06T11:26:41.571Z,60.51
2022-10-06T11:31:57.338Z,60.86
2022-10-06T11:37:12.115Z,61.08
2022-10-06T11:42:25.860Z,60.96
2022-10-06T11:47:37.017Z,60.11
2022-10-06T11:52:52.496Z,59.10
2022-10-06T12:03:48.691Z,58.78
2022-10-06T12:08:54.340Z,59.35
2022-10-06T12:15:06.562Z,59.79
2022-10-06T12:19:33.914Z,58.81
2022-10-06T12:25:12.603Z,57.75
2022-10-06T12:30:24.783Z,56.22
2022-10-06T12:35:34.174Z,55.91
2022-10-06T12:40:47.163Z,55.39
2022-10-06T12:45:58.155Z,56.02
2022-10-06T12:51:13.140Z,57.00
2022-10-06T12:56:28.409Z,57.32
2022-10-06T13:01:34.436Z,57.31
2022-10-06T13:06:48.645Z,57.79
2022-10-06T13:11:54.615Z,58.71
2022-10-06T13:17:03.345Z,58.74
2022-10-06T13:22:13.353Z,57.95
2022-10-06T13:27:19.314Z,57.19
2022-10-06T13:32:27.554Z,55.86
2022-10-06T13:37:33.843Z,54.81
2022-10-06T13:42:39.820Z,53.70
2022-10-06T13:47:45.799Z,52.06
2022-10-06T13:52:51.727Z,49.93
2022-10-06T13:58:09.997Z,49.37
2022-10-06T14:03:25.438Z,50.42
2022-10-06T14:08:32.423Z,49.64
2022-10-06T14:13:47.435Z,49.39
2022-10-06T14:18:59.793Z,49.46
2022-10-06T14:24:21.301Z,49.47
2022-10-06T14:29:27.598Z,49.87
2022-10-06T14:34:33.443Z,50.66
2022-10-06T14:39:39.671Z,51.44
2022-10-06T14:44:46.077Z,52.45
2022-10-06T14:49:53.008Z,52.98
2022-10-06T14:54:59.214Z,53.00
2022-10-06T15:00:08.986Z,53.36
2022-10-06T15:05:14.837Z,53.90
2022-10-06T15:10:20.689Z,54.18
2022-10-06T15:15:26.489Z,54.34
2022-10-06T15:20:33.542Z,54.23
2022-10-06T15:25:57.999Z,54.55
2022-10-06T15:31:03.978Z,54.37
2022-10-06T15:36:21.814Z,54.75
2022-10-06T15:41:27.874Z,55.33
2022-10-06T15:46:36.152Z,55.90
2022-10-06T15:51:52.621Z,56.85
2022-10-06T15:57:00.409Z,57.37
2022-10-06T16:02:14.377Z,57.72
2022-10-06T16:07:21.201Z,58.22
2022-10-06T16:12:28.612Z,58.57
2022-10-06T16:17:35.243Z,58.84
2022-10-06T16:22:41.545Z,59.16
2022-10-06T16:27:50.119Z,59.56
2022-10-06T16:32:55.904Z,59.77
2022-10-06T16:38:01.627Z,60.27
2022-10-06T16:43:07.510Z,60.76
2022-10-06T16:48:13.312Z,61.03
2022-10-06T16:53:20.742Z,61.65
2022-10-06T16:58:26.638Z,62.23
2022-10-06T17:03:32.675Z,62.74
2022-10-06T17:08:39.087Z,63.24
2022-10-06T17:13:46.246Z,63.41
2022-10-06T17:18:54.014Z,63.58
2022-10-06T17:24:02.761Z,63.65
2022-10-06T17:29:12.893Z,64.45
2022-10-06T17:34:22.438Z,64.50
2022-10-06T17:39:30.571Z,64.65
2022-10-06T17:44:36.690Z,64.94
2022-10-06T17:49:42.696Z,65.15
2022-10-06T17:54:48.528Z,65.48
2022-10-06T17:59:56.053Z,65.89
2022-10-06T18:05:02.438Z,66.33
2022-10-06T18:10:27.817Z,66.59
2022-10-06T18:15:37.129Z,67.10
2022-10-06T18:20:42.841Z,67.43
2022-10-06T18:25:51.644Z,67.80
2022-10-06T18:30:58.024Z,68.06
2022-10-06T18:36:14.381Z,68.65
2022-10-06T18:41:22.351Z,69.11
2022-10-06T18:46:47.927Z,69.39
2022-10-06T18:51:58.325Z,69.93
2022-10-06T18:57:04.437Z,70.52
2022-10-06T19:02:11.396Z,70.86
2022-10-06T19:07:17.245Z,71.32
2022-10-06T19:12:22.917Z,71.38
2022-10-06T19:17:28.678Z,71.83
2022-10-06T19:22:34.786Z,72.40
2022-10-06T19:27:41.047Z,72.70
2022-10-06T19:32:48.703Z,73.12
2022-10-06T19:37:54.626Z,73.48
2022-10-06T19:43:00.482Z,74.06
2022-10-06T19:48:06.389Z,74.32
2022-10-06T19:53:12.482Z,74.61
2022-10-06T19:58:18.193Z,75.00
2022-10-06T20:03:24.075Z,75.11
2022-10-06T20:08:30.804Z,75.40
2022-10-06T20:13:39.066Z,75.86
2022-10-06T20:18:46.394Z,76.04
2022-10-06T20:23:55.422Z,76.23
2022-10-06T20:29:05.097Z,76.23
2022-10-06T20:34:14.075Z,76.41
2022-10-06T20:39:40.527Z,76.72
2022-10-06T20:44:46.324Z,77.16
2022-10-06T20:49:55.032Z,77.44
2022-10-06T20:55:00.854Z,77.42
2022-10-06T21:00:08.674Z,77.54
2022-10-06T21:05:14.656Z,77.81
2022-10-06T21:10:20.621Z,77.77
2022-10-06T21:15:26.617Z,78.00
2022-10-06T21:20:32.415Z,78.14
2022-10-06T21:25:39.008Z,78.38
2022-10-06T21:30:45.868Z,78.79
2022-10-06T21:35:59.964Z,79.10
2022-10-06T21:41:26.532Z,78.84
2022-10-06T21:46:34.664Z,78.92
2022-10-06T21:51:41.972Z,79.63
2022-10-06T21:56:48.383Z,80.08
2022-10-06T22:01:54.273Z,80.83
2022-10-06T22:06:59.988Z,80.56
2022-10-06T22:12:06.713Z,80.59
2022-10-06T22:17:15.249Z,80.81
2022-10-06T22:22:21.106Z,81.19
2022-10-06T22:27:27.005Z,81.22
2022-10-06T22:32:32.976Z,81.19
2022-10-06T22:37:38.721Z,81.76
2022-10-06T22:42:44.816Z,81.89
2022-10-06T22:47:50.696Z,82.22
2022-10-06T22:52:56.552Z,82.30
2022-10-06T22:58:02.412Z,82.69
2022-10-06T23:03:10.102Z,82.57
2022-10-06T23:08:15.972Z,82.22
2022-10-06T23:13:21.943Z,82.10
2022-10-06T23:18:27.812Z,82.17
2022-10-06T23:23:34.504Z,82.80
2022-10-06T23:28:41.295Z,83.21
2022-10-06T23:33:47.304Z,83.11
2022-10-06T23:38:53.607Z,83.24
2022-10-06T23:43:59.708Z,83.78
2022-10-06T23:49:05.943Z,84.22
2022-10-06T23:54:12.419Z,83.99
2022-10-06T23:59:18.485Z,84.15
